createdAt,value
2022-10-31T00:02:56.415Z,25.10
2022-10-31T00:05:59.248Z,22.65
2022-10-31T00:09:04.296Z,22.45
2022-10-31T00:12:07.151Z,23.65
2022-10-31T00:15:09.723Z,22.30
2022-10-31T00:18:12.663Z,23.20
2022-10-31T00:21:15.849Z,22.80
2022-10-31T00:24:18.526Z,25.77
2022-10-31T00:27:21.002Z,26.52
2022-10-31T00:30:24.178Z,24.83
2022-10-31T00:33:27.229Z,28.38
2022-10-31T00:36:30.065Z,23.20
2022-10-31T00:39:32.560Z,31.12
2022-10-31T00:42:35.311Z,29.70
2022-10-31T00:45:37.827Z,33.72
2022-10-31T00:48:40.875Z,35.45
2022-10-31T00:51:43.485Z,37.50
2022-10-31T00:54:46.202Z,32.95
2022-10-31T00:57:48.911Z,29.55
2022-10-31T01:00:57.781Z,33.17
2022-10-31T01:04:00.497Z,31.92
2022-10-31T01:07:03.214Z,30.37
2022-10-31T01:10:06.887Z,38.00
2022-10-31T01:13:09.693Z,33.80
2022-10-31T01:16:17.183Z,31.00
2022-10-31T01:19:20.905Z,28.65
2022-10-31T01:22:23.427Z,35.10
2022-10-31T01:25:26.654Z,33.13
2022-10-31T01:28:29.874Z,40.05
2022-10-31T01:31:36.414Z,27.37
2022-10-31T01:34:38.860Z,26.85
2022-10-31T01:37:41.605Z,32.80
2022-10-31T01:40:44.150Z,34.05
2022-10-31T01:43:49.174Z,45.30
2022-10-31T01:46:57.683Z,41.67
2022-10-31T01:50:03.883Z,34.35
2022-10-31T01:53:09.189Z,32.38
2022-10-31T01:56:13.061Z,29.90
2022-10-31T01:59:19.763Z,33.13
2022-10-31T02:02:22.600Z,31.12
2022-10-31T02:05:28.688Z,25.75
2022-10-31T02:08:33.543Z,34.22
2022-10-31T02:11:38.021Z,31.10
2022-10-31T02:14:41.581Z,28.00
2022-10-31T02:17:44.452Z,27.25
2022-10-31T02:21:07.459Z,30.95
2022-10-31T02:24:28.061Z,26.92
2022-10-31T02:28:02.457Z,25.33
2022-10-31T02:31:27.543Z,31.80
2022-10-31T02:34:41.530Z,19.15
2022-10-31T02:37:50.126Z,25.27
2022-10-31T02:41:06.034Z,21.02
2022-10-31T02:44:32.831Z,22.07
2022-10-31T02:47:38.273Z,19.50
2022-10-31T02:50:44.742Z,16.95
2022-10-31T02:53:47.281Z,19.73
2022-10-31T02:56:55.448Z,18.80
2022-10-31T03:00:05.609Z,15.73
2022-10-31T03:03:25.578Z,16.58
2022-10-31T03:06:40.244Z,17.73
2022-10-31T03:09:54.908Z,22.08
2022-10-31T03:13:16.058Z,16.40
2022-10-31T03:16:29.029Z,15.57
2022-10-31T03:19:38.171Z,17.87
2022-10-31T03:22:43.932Z,19.30
2022-10-31T03:25:48.113Z,17.90
2022-10-31T03:28:58.373Z,16.10
2022-10-31T03:32:18.494Z,17.77
2022-10-31T03:35:25.263Z,14.45
2022-10-31T03:38:29.150Z,21.40
2022-10-31T03:41:40.178Z,14.50
2022-10-31T03:44:48.131Z,20.40
2022-10-31T03:47:52.033Z,21.85
2022-10-31T03:51:14.087Z,16.00
2022-10-31T03:54:24.069Z,23.77
2022-10-31T03:57:49.185Z,15.82
2022-10-31T04:00:54.897Z,16.30
2022-10-31T04:03:59.357Z,17.75
2022-10-31T04:07:03.270Z,17.55
2022-10-31T04:10:09.325Z,18.58
2022-10-31T04:16:23.469Z,21.65
2022-10-31T04:19:26.329Z,17.02
2022-10-31T04:22:29.232Z,16.45
2022-10-31T04:25:31.982Z,18.80
2022-10-31T04:28:35.386Z,14.27
2022-10-31T04:31:38.115Z,19.55
2022-10-31T04:34:40.842Z,17.75
2022-10-31T04:37:43.327Z,20.20
2022-10-31T04:40:46.866Z,16.73
2022-10-31T04:43:50.805Z,16.02
2022-10-31T04:46:53.621Z,19.05
2022-10-31T04:49:56.015Z,17.73
2022-10-31T04:52:58.732Z,20.23
2022-10-31T04:56:01.995Z,16.27
2022-10-31T04:59:08.699Z,24.37
2022-10-31T05:02:12.344Z,19.02
2022-10-31T05:05:17.359Z,17.83
2022-10-31T05:08:19.981Z,19.90
2022-10-31T05:11:25.371Z,24.05
2022-10-31T05:14:30.489Z,20.62
2022-10-31T05:17:34.647Z,21.77
2022-10-31T05:20:38.745Z,17.65
2022-10-31T05:23:45.850Z,27.13
2022-10-31T05:26:51.087Z,19.98
2022-10-31T05:29:54.059Z,20.00
2022-10-31T05:32:57.310Z,20.33
2022-10-31T05:36:02.862Z,19.70
2022-10-31T05:39:05.913Z,24.23
2022-10-31T05:42:09.506Z,18.15
2022-10-31T05:45:17.909Z,23.35
2022-10-31T05:48:21.205Z,21.00
2022-10-31T05:51:28.258Z,21.98
2022-10-31T05:54:31.486Z,21.62
2022-10-31T05:57:34.899Z,22.33
2022-10-31T06:00:38.745Z,22.27
2022-10-31T06:03:41.960Z,22.17
2022-10-31T06:06:44.477Z,19.77
2022-10-31T06:09:47.204Z,21.67
2022-10-31T06:12:49.841Z,23.52
2022-10-31T06:15:53.046Z,20.20
2022-10-31T06:18:56.886Z,24.08
2022-10-31T06:21:59.642Z,25.30
2022-10-31T06:25:02.166Z,15.77
2022-10-31T06:28:05.451Z,18.10
2022-10-31T06:31:08.993Z,23.98
2022-10-31T06:34:12.062Z,19.65
2022-10-31T06:37:15.142Z,18.65
2022-10-31T06:40:18.275Z,21.12
2022-10-31T06:43:23.189Z,16.70
2022-10-31T06:46:26.184Z,17.77
2022-10-31T06:49:30.587Z,22.30
2022-10-31T06:52:34.419Z,20.67
2022-10-31T06:55:38.358Z,18.23
2022-10-31T06:58:42.004Z,23.33
2022-10-31T07:01:44.953Z,20.50
2022-10-31T07:04:47.859Z,17.92
2022-10-31T07:07:54.991Z,18.00
2022-10-31T07:10:58.354Z,24.58
2022-10-31T07:14:00.948Z,24.02
2022-10-31T07:17:03.772Z,16.70
2022-10-31T07:20:07.817Z,19.17
2022-10-31T07:23:11.936Z,20.60
2022-10-31T07:26:14.780Z,19.10
2022-10-31T07:29:18.039Z,17.17
2022-10-31T07:32:20.571Z,21.48
2022-10-31T07:35:28.201Z,20.08
2022-10-31T07:41:38.087Z,15.82
2022-10-31T07:44:40.496Z,19.77
2022-10-31T07:47:56.705Z,19.65
2022-10-31T07:51:07.932Z,21.70
2022-10-31T07:54:12.384Z,21.50
2022-10-31T07:57:16.019Z,20.37
2022-10-31T08:00:19.343Z,21.83
2022-10-31T08:03:24.860Z,23.40
2022-10-31T08:06:29.852Z,23.73
2022-10-31T08:09:34.589Z,18.17
2022-10-31T08:12:37.414Z,18.45
2022-10-31T08:15:42.522Z,21.30
2022-10-31T08:18:46.070Z,18.67
2022-10-31T08:21:53.413Z,16.77
2022-10-31T08:24:56.051Z,26.12
2022-10-31T08:27:59.088Z,20.85
2022-10-31T08:31:01.746Z,17.25
2022-10-31T08:34:12.883Z,24.63
2022-10-31T08:37:20.913Z,20.67
2022-10-31T08:40:28.753Z,14.60
2022-10-31T08:43:31.282Z,18.92
2022-10-31T08:46:34.234Z,22.30
2022-10-31T08:49:37.012Z,22.37
2022-10-31T08:53:03.749Z,25.85
2022-10-31T08:56:02.935Z,22.37
2022-10-31T08:59:05.656Z,18.17
2022-10-31T09:02:09.605Z,21.92
2022-10-31T09:05:13.147Z,20.12
2022-10-31T09:08:17.190Z,25.95
2022-10-31T09:11:20.684Z,22.87
2022-10-31T09:14:38.279Z,25.92
2022-10-31T09:17:48.716Z,24.90
2022-10-31T09:20:52.057Z,28.77
2022-10-31T09:23:54.921Z,26.33
2022-10-31T09:26:59.759Z,26.73
2022-10-31T09:30:02.719Z,25.27
2022-10-31T09:33:10.622Z,30.37
2022-10-31T09:36:14.230Z,20.30
2022-10-31T09:39:16.718Z,27.90
2022-10-31T09:42:31.717Z,31.33
2022-10-31T09:45:45.388Z,29.27
2022-10-31T09:49:22.229Z,32.40
2022-10-31T09:52:34.422Z,31.52
2022-10-31T09:55:47.647Z,28.58
2022-10-31T09:59:11.520Z,31.73
2022-10-31T10:02:26.867Z,28.20
2022-10-31T10:05:41.614Z,31.27
2022-10-31T10:08:45.616Z,31.70
2022-10-31T10:12:07.555Z,31.48
2022-10-31T10:15:40.193Z,31.95
2022-10-31T10:18:55.999Z,32.83
2022-10-31T10:22:48.309Z,30.73
2022-10-31T10:26:00.164Z,32.35
2022-10-31T10:29:25.322Z,31.62
2022-10-31T10:32:30.579Z,32.35
2022-10-31T10:36:03.438Z,25.65
2022-10-31T10:39:17.738Z,28.17
2022-10-31T10:42:40.069Z,29.17
2022-10-31T10:46:07.873Z,31.02
2022-10-31T10:49:18.884Z,26.25
2022-10-31T10:52:50.204Z,28.38
2022-10-31T10:55:59.389Z,28.85
2022-10-31T10:59:03.418Z,28.35
2022-10-31T11:02:18.250Z,30.83
2022-10-31T11:05:29.194Z,28.27
2022-10-31T11:08:36.653Z,24.87
2022-10-31T11:11:39.847Z,25.90
2022-10-31T11:15:00.255Z,29.73
2022-10-31T11:18:03.323Z,30.50
2022-10-31T11:21:06.429Z,29.15
2022-10-31T11:24:12.238Z,26.85
2022-10-31T11:27:22.205Z,27.33
2022-10-31T11:30:25.049Z,27.75
2022-10-31T11:33:33.247Z,26.35
2022-10-31T11:36:43.068Z,28.65
2022-10-31T11:39:54.379Z,26.27
2022-10-31T11:43:00.325Z,28.52
2022-10-31T11:46:12.168Z,25.52
2022-10-31T11:49:42.979Z,26.02
2022-10-31T11:52:45.668Z,21.85
2022-10-31T11:55:59.915Z,23.87
2022-10-31T11:59:05.196Z,28.80
2022-10-31T12:02:20.216Z,25.42
2022-10-31T12:05:30.162Z,23.05
2022-10-31T12:08:35.983Z,25.23
2022-10-31T12:12:04.824Z,20.92
2022-10-31T12:15:27.529Z,25.33
2022-10-31T12:18:43.835Z,24.73
2022-10-31T12:22:01.616Z,19.40
2022-10-31T12:25:22.765Z,19.65
2022-10-31T12:28:46.317Z,21.58
2022-10-31T12:32:17.118Z,20.70
2022-10-31T12:35:53.220Z,12.30
2022-10-31T12:39:20.903Z,22.55
2022-10-31T12:42:45.443Z,23.65
2022-10-31T12:45:59.674Z,22.98
2022-10-31T12:49:29.987Z,24.52
2022-10-31T12:52:35.139Z,21.35
2022-10-31T12:55:46.914Z,21.90
2022-10-31T12:58:56.320Z,20.00
2022-10-31T13:02:26.693Z,18.65
2022-10-31T13:05:37.159Z,19.48
2022-10-31T13:08:46.175Z,21.58
2022-10-31T13:12:00.709Z,19.55
2022-10-31T13:15:19.124Z,18.23
2022-10-31T13:18:34.134Z,13.73
2022-10-31T13:22:00.408Z,19.20
2022-10-31T13:25:10.261Z,20.70
2022-10-31T13:28:25.098Z,20.42
2022-10-31T13:31:28.503Z,19.75
2022-10-31T13:34:40.436Z,22.13
2022-10-31T13:37:54.514Z,18.80
2022-10-31T13:41:03.224Z,18.60
2022-10-31T13:44:11.970Z,20.33
2022-10-31T13:50:31.230Z,18.27
2022-10-31T13:53:43.103Z,17.55
2022-10-31T13:56:50.442Z,21.45
2022-10-31T13:59:57.042Z,22.05
2022-10-31T14:02:59.984Z,16.60
2022-10-31T14:06:02.958Z,16.65
2022-10-31T14:09:05.873Z,16.40
2022-10-31T14:12:16.139Z,16.45
2022-10-31T14:15:26.211Z,17.85
2022-10-31T14:18:34.528Z,19.17
2022-10-31T14:21:43.237Z,17.40
2022-10-31T14:24:45.919Z,16.45
2022-10-31T14:27:48.401Z,14.82
2022-10-31T14:30:59.196Z,14.73
2022-10-31T14:34:05.510Z,13.50
2022-10-31T14:37:44.989Z,19.90
2022-10-31T14:41:03.416Z,18.62
2022-10-31T14:44:35.398Z,13.77
2022-10-31T14:47:51.282Z,13.52
2022-10-31T14:50:59.466Z,14.30
2022-10-31T14:54:03.490Z,15.85
2022-10-31T14:57:15.038Z,16.80
2022-10-31T15:00:21.442Z,15.65
2022-10-31T15:03:27.779Z,18.17
2022-10-31T15:06:37.583Z,17.02
2022-10-31T15:09:44.283Z,14.57
2022-10-31T15:12:46.759Z,14.02
2022-10-31T15:15:53.139Z,17.77
2022-10-31T15:19:13.691Z,14.73
2022-10-31T15:22:20.068Z,16.00
2022-10-31T15:25:24.875Z,17.92
2022-10-31T15:28:28.301Z,14.13
2022-10-31T15:31:32.128Z,15.77
2022-10-31T15:34:40.421Z,13.20
2022-10-31T15:37:43.063Z,16.85
2022-10-31T15:40:55.045Z,19.48
2022-10-31T15:44:03.545Z,19.30
2022-10-31T15:47:18.207Z,17.85
2022-10-31T15:50:43.702Z,16.23
2022-10-31T15:53:51.420Z,18.20
2022-10-31T15:56:53.864Z,14.63
2022-10-31T15:59:57.674Z,15.07
2022-10-31T16:03:15.025Z,20.10
2022-10-31T16:06:22.159Z,12.98
2022-10-31T16:09:25.238Z,16.55
2022-10-31T16:12:38.199Z,17.62
2022-10-31T16:16:08.802Z,15.73
2022-10-31T16:19:28.093Z,16.52
2022-10-31T16:22:34.436Z,12.55
2022-10-31T16:25:41.116Z,18.92
2022-10-31T16:28:53.448Z,16.37
2022-10-31T16:31:57.415Z,13.00
2022-10-31T16:35:02.216Z,16.17
2022-10-31T16:41:26.817Z,13.68
2022-10-31T16:44:29.667Z,18.75
2022-10-31T16:47:32.118Z,13.60
2022-10-31T16:50:34.979Z,12.27
2022-10-31T16:53:40.603Z,19.83
2022-10-31T16:56:45.574Z,14.27
2022-10-31T16:59:52.549Z,12.30
2022-10-31T17:02:57.682Z,16.73
2022-10-31T17:06:00.563Z,17.17
2022-10-31T17:09:03.674Z,22.17
2022-10-31T17:12:13.434Z,16.20
2022-10-31T17:15:23.434Z,18.70
2022-10-31T17:18:27.809Z,17.12
2022-10-31T17:21:31.017Z,23.80
2022-10-31T17:24:33.632Z,19.90
2022-10-31T17:27:36.556Z,19.70
2022-10-31T17:30:40.255Z,17.42
2022-10-31T17:33:43.284Z,16.60
2022-10-31T17:36:51.584Z,21.70
2022-10-31T17:39:54.586Z,15.30
2022-10-31T17:42:58.217Z,14.27
2022-10-31T17:46:01.584Z,15.60
2022-10-31T17:49:07.011Z,15.35
2022-10-31T17:52:09.923Z,14.38
2022-10-31T17:55:13.405Z,13.93
2022-10-31T17:58:17.452Z,13.95
2022-10-31T18:01:20.284Z,15.73
2022-10-31T18:04:23.465Z,13.35
2022-10-31T18:07:26.184Z,14.57
2022-10-31T18:10:29.482Z,12.30
2022-10-31T18:13:32.431Z,16.83
2022-10-31T18:19:39.391Z,13.77
2022-10-31T18:22:42.335Z,13.13
2022-10-31T18:25:48.110Z,15.88
2022-10-31T18:28:51.870Z,14.57
2022-10-31T18:31:55.288Z,15.68
2022-10-31T18:34:58.187Z,17.58
2022-10-31T18:38:03.223Z,11.45
2022-10-31T18:41:07.328Z,13.50
2022-10-31T18:44:10.291Z,16.70
2022-10-31T18:47:13.481Z,14.70
2022-10-31T18:50:16.505Z,15.85
2022-10-31T18:53:20.815Z,16.73
2022-10-31T18:56:25.046Z,16.73
2022-10-31T18:59:28.657Z,16.58
2022-10-31T19:02:31.734Z,13.82
2022-10-31T19:05:34.846Z,15.93
2022-10-31T19:08:39.622Z,17.30
2022-10-31T19:11:42.878Z,20.42
2022-10-31T19:14:46.098Z,13.27
2022-10-31T19:17:49.483Z,16.62
2022-10-31T19:20:52.158Z,18.10
2022-10-31T19:23:56.452Z,16.87
2022-10-31T19:27:00.681Z,21.73
2022-10-31T19:30:06.366Z,18.60
2022-10-31T19:33:09.524Z,15.00
2022-10-31T19:36:18.770Z,14.25
2022-10-31T19:39:21.775Z,14.13
2022-10-31T19:42:25.184Z,21.48
2022-10-31T19:45:27.844Z,14.30
2022-10-31T19:48:36.573Z,20.60
2022-10-31T19:51:39.890Z,15.93
2022-10-31T19:54:42.808Z,16.85
2022-10-31T19:58:11.934Z,17.10
2022-10-31T20:01:09.629Z,22.60
2022-10-31T20:04:12.986Z,15.13
2022-10-31T20:07:16.022Z,15.68
2022-10-31T20:10:19.994Z,19.27
2022-10-31T20:13:23.762Z,18.52
2022-10-31T20:16:27.921Z,16.92
2022-10-31T20:19:31.065Z,16.90
2022-10-31T20:22:36.130Z,18.17
2022-10-31T20:25:50.184Z,18.40
2022-10-31T20:28:55.791Z,20.00
2022-10-31T20:31:58.541Z,20.12
2022-10-31T20:35:01.560Z,25.98
2022-10-31T20:38:05.339Z,18.77
2022-10-31T20:41:10.941Z,17.77
2022-10-31T20:44:13.649Z,19.40
2022-10-31T20:47:19.389Z,23.30
2022-10-31T20:50:25.666Z,29.43
2022-10-31T20:53:29.380Z,20.35
2022-10-31T20:56:32.180Z,23.83
2022-10-31T20:59:35.374Z,23.83
2022-10-31T21:02:42.333Z,16.83
2022-10-31T21:05:56.070Z,19.42
2022-10-31T21:08:58.664Z,23.85
2022-10-31T21:12:01.435Z,22.92
2022-10-31T21:15:04.320Z,19.50
2022-10-31T21:18:07.436Z,20.23
2022-10-31T21:21:12.637Z,20.83
2022-10-31T21:27:20.251Z,26.17
2022-10-31T21:30:22.977Z,23.00
2022-10-31T21:33:25.781Z,19.33
2022-10-31T21:36:28.539Z,19.30
2022-10-31T21:39:31.060Z,23.38
2022-10-31T21:42:34.029Z,25.12
2022-10-31T21:45:36.519Z,21.52
2022-10-31T21:48:44.089Z,20.10
2022-10-31T21:51:47.577Z,21.25
2022-10-31T21:54:50.351Z,17.17
2022-10-31T21:57:52.756Z,20.42
2022-10-31T22:00:55.531Z,18.23
2022-10-31T22:03:58.641Z,23.48
2022-10-31T22:07:01.100Z,25.00
2022-10-31T22:10:04.117Z,19.98
2022-10-31T22:13:06.615Z,19.98
2022-10-31T22:16:12.015Z,21.10
2022-10-31T22:19:14.747Z,19.55
2022-10-31T22:22:17.562Z,16.58
2022-10-31T22:25:20.028Z,25.80
2022-10-31T22:28:23.144Z,22.65
2022-10-31T22:31:27.130Z,19.73
2022-10-31T22:34:29.902Z,16.92
2022-10-31T22:37:32.317Z,18.83
2022-10-31T22:40:35.000Z,20.15
2022-10-31T22:43:37.608Z,18.23
2022-10-31T22:46:40.357Z,18.52
2022-10-31T22:49:43.819Z,22.23
2022-10-31T22:52:46.541Z,19.15
2022-10-31T22:55:52.017Z,16.12
2022-10-31T22:58:55.045Z,22.20
2022-10-31T23:01:57.720Z,21.40
2022-10-31T23:05:00.577Z,17.00
2022-10-31T23:08:03.682Z,16.98
2022-10-31T23:11:34.569Z,21.75
2022-10-31T23:14:37.022Z,18.45
2022-10-31T23:17:39.769Z,13.77
2022-10-31T23:20:42.977Z,17.87
2022-10-31T23:23:45.687Z,19.27
2022-10-31T23:27:09.095Z,21.45
2022-10-31T23:30:12.045Z,17.50
2022-10-31T23:33:14.474Z,18.98
2022-10-31T23:36:17.215Z,22.15
2022-10-31T23:39:24.154Z,20.67
2022-10-31T23:42:28.819Z,13.30
2022-10-31T23:45:31.340Z,21.37
2022-10-31T23:48:34.171Z,20.45
2022-10-31T23:51:37.526Z,22.55
2022-10-31T23:54:40.569Z,23.08
2022-10-31T23:57:43.103Z,17.12
